Terminal Aerodrome Forecast
Issued by NWS

Home | Current Version | Previous Version | Graphics & Text | Print | Product List | Glossary On
Versions: 1 2 3 4 5 6 7 8 9 10 11 12
000
FTUS43 KMPX 242337
TAFRWF
TAF
KRWF 242337Z 2500/2524 31012KT P6SM BKN070
     FM251400 31015G23KT P6SM SCT050=

USA.gov is the U.S. government's official web portal to all federal, state and local government web resources and services.